sensor_id;sensor_type;location;lat;lon;timestamp;temperature;humidity
15765;DHT22;7983;50.744;7.086;2023-07-31T00:01:11;20.20;99.90
15765;DHT22;7983;50.744;7.086;2023-07-31T00:03:39;20.20;99.90
15765;DHT22;7983;50.744;7.086;2023-07-31T00:06:07;20.20;99.90
15765;DHT22;7983;50.744;7.086;2023-07-31T00:08:33;20.20;99.90
15765;DHT22;7983;50.744;7.086;2023-07-31T00:10:58;20.20;99.90
15765;DHT22;7983;50.744;7.086;2023-07-31T00:13:24;20.20;99.90
15765;DHT22;7983;50.744;7.086;2023-07-31T00:15:54;20.20;99.90
15765;DHT22;7983;50.744;7.086;2023-07-31T00:18:20;20.20;99.90
15765;DHT22;7983;50.744;7.086;2023-07-31T00:20:47;20.20;99.90
15765;DHT22;7983;50.744;7.086;2023-07-31T00:23:13;20.20;99.90
15765;DHT22;7983;50.744;7.086;2023-07-31T00:25:42;20.20;99.90
15765;DHT22;7983;50.744;7.086;2023-07-31T00:28:07;20.30;99.90
15765;DHT22;7983;50.744;7.086;2023-07-31T00:30:33;20.30;99.90
15765;DHT22;7983;50.744;7.086;2023-07-31T00:33:01;20.30;99.90
15765;DHT22;7983;50.744;7.086;2023-07-31T00:35:31;20.30;99.90
15765;DHT22;7983;50.744;7.086;2023-07-31T00:38:01;20.20;99.90
15765;DHT22;7983;50.744;7.086;2023-07-31T00:40:27;20.30;99.90
15765;DHT22;7983;50.744;7.086;2023-07-31T00:42:53;20.30;99.90
15765;DHT22;7983;50.744;7.086;2023-07-31T00:45:18;20.30;99.90
15765;DHT22;7983;50.744;7.086;2023-07-31T00:47:50;20.30;99.90
15765;DHT22;7983;50.744;7.086;2023-07-31T00:50:16;20.30;99.90
15765;DHT22;7983;50.744;7.086;2023-07-31T00:52:42;20.30;99.90
15765;DHT22;7983;50.744;7.086;2023-07-31T00:55:08;20.30;99.90
15765;DHT22;7983;50.744;7.086;2023-07-31T00:57:36;20.30;99.90
15765;DHT22;7983;50.744;7.086;2023-07-31T01:00:03;20.30;99.90
15765;DHT22;7983;50.744;7.086;2023-07-31T01:02:29;20.30;99.90
15765;DHT22;7983;50.744;7.086;2023-07-31T01:04:57;20.30;99.90
15765;DHT22;7983;50.744;7.086;2023-07-31T01:10:22;20.30;99.90
15765;DHT22;7983;50.744;7.086;2023-07-31T01:12:52;20.20;99.90
15765;DHT22;7983;50.744;7.086;2023-07-31T01:15:18;20.20;99.90
15765;DHT22;7983;50.744;7.086;2023-07-31T01:17:44;20.30;99.90
15765;DHT22;7983;50.744;7.086;2023-07-31T01:20:13;20.20;99.90
15765;DHT22;7983;50.744;7.086;2023-07-31T01:28:17;20.20;99.90
15765;DHT22;7983;50.744;7.086;2023-07-31T01:30:48;20.20;99.90
15765;DHT22;7983;50.744;7.086;2023-07-31T01:33:16;20.10;99.90
15765;DHT22;7983;50.744;7.086;2023-07-31T01:35:44;20.10;99.90
15765;DHT22;7983;50.744;7.086;2023-07-31T01:38:10;20.00;99.90
15765;DHT22;7983;50.744;7.086;2023-07-31T01:40:41;19.90;99.90
15765;DHT22;7983;50.744;7.086;2023-07-31T01:43:07;19.80;99.90
15765;DHT22;7983;50.744;7.086;2023-07-31T01:45:33;19.70;99.90
15765;DHT22;7983;50.744;7.086;2023-07-31T01:47:59;19.60;99.90
15765;DHT22;7983;50.744;7.086;2023-07-31T01:50:29;19.60;99.90
15765;DHT22;7983;50.744;7.086;2023-07-31T01:52:54;19.50;99.90
15765;DHT22;7983;50.744;7.086;2023-07-31T01:55:20;19.40;99.90
15765;DHT22;7983;50.744;7.086;2023-07-31T01:57:46;19.40;99.90
15765;DHT22;7983;50.744;7.086;2023-07-31T02:00:11;19.40;99.90
15765;DHT22;7983;50.744;7.086;2023-07-31T02:02:40;19.30;99.90
15765;DHT22;7983;50.744;7.086;2023-07-31T02:05:06;19.30;99.90
15765;DHT22;7983;50.744;7.086;2023-07-31T02:07:31;19.30;99.90
15765;DHT22;7983;50.744;7.086;2023-07-31T02:09:57;19.30;99.90
15765;DHT22;7983;50.744;7.086;2023-07-31T02:12:23;19.30;99.90
15765;DHT22;7983;50.744;7.086;2023-07-31T02:14:48;19.30;99.90
15765;DHT22;7983;50.744;7.086;2023-07-31T02:17:14;19.40;99.90
15765;DHT22;7983;50.744;7.086;2023-07-31T02:19:39;19.40;99.90
15765;DHT22;7983;50.744;7.086;2023-07-31T02:22:07;19.40;99.90
15765;DHT22;7983;50.744;7.086;2023-07-31T02:24:38;19.40;99.90
15765;DHT22;7983;50.744;7.086;2023-07-31T02:27:04;19.40;99.90
15765;DHT22;7983;50.744;7.086;2023-07-31T02:29:32;19.40;99.90
15765;DHT22;7983;50.744;7.086;2023-07-31T02:32:00;19.40;99.90
15765;DHT22;7983;50.744;7.086;2023-07-31T02:34:28;19.50;99.90
15765;DHT22;7983;50.744;7.086;2023-07-31T02:36:53;19.50;99.90
15765;DHT22;7983;50.744;7.086;2023-07-31T02:39:21;19.50;99.90
15765;DHT22;7983;50.744;7.086;2023-07-31T02:41:47;19.50;99.90
15765;DHT22;7983;50.744;7.086;2023-07-31T02:44:12;19.60;99.90
15765;DHT22;7983;50.744;7.086;2023-07-31T02:46:42;19.60;99.90
15765;DHT22;7983;50.744;7.086;2023-07-31T02:49:07;19.60;99.90
15765;DHT22;7983;50.744;7.086;2023-07-31T02:51:33;19.60;99.90
15765;DHT22;7983;50.744;7.086;2023-07-31T02:53:58;19.60;99.90
15765;DHT22;7983;50.744;7.086;2023-07-31T02:56:26;19.70;99.90
15765;DHT22;7983;50.744;7.086;2023-07-31T02:58:52;19.70;99.90
15765;DHT22;7983;50.744;7.086;2023-07-31T03:01:20;19.70;99.90
15765;DHT22;7983;50.744;7.086;2023-07-31T03:03:45;19.70;99.90
15765;DHT22;7983;50.744;7.086;2023-07-31T03:06:11;19.70;99.90
15765;DHT22;7983;50.744;7.086;2023-07-31T03:08:36;19.70;99.90
15765;DHT22;7983;50.744;7.086;2023-07-31T03:11:04;19.80;99.90
15765;DHT22;7983;50.744;7.086;2023-07-31T03:13:34;19.80;99.90
15765;DHT22;7983;50.744;7.086;2023-07-31T03:16:00;19.80;99.90
15765;DHT22;7983;50.744;7.086;2023-07-31T03:18:28;19.80;99.90
15765;DHT22;7983;50.744;7.086;2023-07-31T03:20:53;19.80;99.90
15765;DHT22;7983;50.744;7.086;2023-07-31T03:23:19;19.90;99.90
15765;DHT22;7983;50.744;7.086;2023-07-31T03:26:01;19.90;99.90
15765;DHT22;7983;50.744;7.086;2023-07-31T03:28:26;19.90;99.90
15765;DHT22;7983;50.744;7.086;2023-07-31T03:30:52;19.90;99.90
15765;DHT22;7983;50.744;7.086;2023-07-31T03:33:18;19.90;99.90
15765;DHT22;7983;50.744;7.086;2023-07-31T03:35:44;19.90;99.90
15765;DHT22;7983;50.744;7.086;2023-07-31T03:38:10;20.00;99.90
15765;DHT22;7983;50.744;7.086;2023-07-31T03:40:36;20.00;99.90
15765;DHT22;7983;50.744;7.086;2023-07-31T03:43:01;20.00;99.90
15765;DHT22;7983;50.744;7.086;2023-07-31T03:45:29;20.00;99.90
15765;DHT22;7983;50.744;7.086;2023-07-31T03:47:55;20.00;99.90
15765;DHT22;7983;50.744;7.086;2023-07-31T03:50:20;20.00;99.90
15765;DHT22;7983;50.744;7.086;2023-07-31T03:52:50;20.00;99.90
15765;DHT22;7983;50.744;7.086;2023-07-31T03:55:19;20.00;99.90
15765;DHT22;7983;50.744;7.086;2023-07-31T03:57:44;20.00;99.90
15765;DHT22;7983;50.744;7.086;2023-07-31T04:00:10;20.00;99.90
15765;DHT22;7983;50.744;7.086;2023-07-31T04:02:36;20.00;99.90
15765;DHT22;7983;50.744;7.086;2023-07-31T04:05:04;20.00;99.90
15765;DHT22;7983;50.744;7.086;2023-07-31T04:07:30;20.00;99.90
15765;DHT22;7983;50.744;7.086;2023-07-31T04:09:57;20.10;99.90
15765;DHT22;7983;50.744;7.086;2023-07-31T04:12:22;20.10;99.90
15765;DHT22;7983;50.744;7.086;2023-07-31T04:14:48;20.10;99.90
15765;DHT22;7983;50.744;7.086;2023-07-31T04:17:13;20.00;99.90
15765;DHT22;7983;50.744;7.086;2023-07-31T04:19:39;20.10;99.90
15765;DHT22;7983;50.744;7.086;2023-07-31T04:22:05;20.10;99.90
15765;DHT22;7983;50.744;7.086;2023-07-31T04:24:30;20.10;99.90
15765;DHT22;7983;50.744;7.086;2023-07-31T04:26:56;20.10;99.90
15765;DHT22;7983;50.744;7.086;2023-07-31T04:29:28;20.10;99.90
15765;DHT22;7983;50.744;7.086;2023-07-31T04:31:59;20.10;99.90
15765;DHT22;7983;50.744;7.086;2023-07-31T04:34:29;20.10;99.90
15765;DHT22;7983;50.744;7.086;2023-07-31T04:36:59;20.10;99.90
15765;DHT22;7983;50.744;7.086;2023-07-31T04:39:27;20.10;99.90
15765;DHT22;7983;50.744;7.086;2023-07-31T04:41:53;20.10;99.90
15765;DHT22;7983;50.744;7.086;2023-07-31T04:44:18;20.20;99.90
15765;DHT22;7983;50.744;7.086;2023-07-31T04:46:46;20.20;99.90
15765;DHT22;7983;50.744;7.086;2023-07-31T04:49:11;20.20;99.90
15765;DHT22;7983;50.744;7.086;2023-07-31T04:51:37;20.20;99.90
15765;DHT22;7983;50.744;7.086;2023-07-31T04:54:03;20.20;99.90
15765;DHT22;7983;50.744;7.086;2023-07-31T04:56:28;20.20;99.90
15765;DHT22;7983;50.744;7.086;2023-07-31T04:58:59;20.20;99.90
15765;DHT22;7983;50.744;7.086;2023-07-31T05:01:25;20.30;99.90
15765;DHT22;7983;50.744;7.086;2023-07-31T05:03:53;20.30;99.90
15765;DHT22;7983;50.744;7.086;2023-07-31T05:06:18;20.40;99.90
15765;DHT22;7983;50.744;7.086;2023-07-31T05:08:45;20.30;99.90
15765;DHT22;7983;50.744;7.086;2023-07-31T05:11:13;20.40;99.90
15765;DHT22;7983;50.744;7.086;2023-07-31T05:13:41;20.40;99.90
15765;DHT22;7983;50.744;7.086;2023-07-31T05:16:11;20.50;99.90
15765;DHT22;7983;50.744;7.086;2023-07-31T05:18:37;20.50;99.90
15765;DHT22;7983;50.744;7.086;2023-07-31T05:21:02;20.50;99.90
15765;DHT22;7983;50.744;7.086;2023-07-31T05:23:28;20.50;99.90
15765;DHT22;7983;50.744;7.086;2023-07-31T05:25:54;20.50;99.90
15765;DHT22;7983;50.744;7.086;2023-07-31T05:28:22;20.60;99.90
15765;DHT22;7983;50.744;7.086;2023-07-31T05:30:47;20.60;99.90
15765;DHT22;7983;50.744;7.086;2023-07-31T05:33:13;20.60;99.90
15765;DHT22;7983;50.744;7.086;2023-07-31T05:35:41;20.70;99.90
15765;DHT22;7983;50.744;7.086;2023-07-31T05:38:09;20.70;99.90
15765;DHT22;7983;50.744;7.086;2023-07-31T05:40:40;20.70;99.90
15765;DHT22;7983;50.744;7.086;2023-07-31T05:43:05;20.80;99.90
15765;DHT22;7983;50.744;7.086;2023-07-31T05:45:33;20.80;99.90
15765;DHT22;7983;50.744;7.086;2023-07-31T05:47:59;20.80;99.90
15765;DHT22;7983;50.744;7.086;2023-07-31T05:50:29;20.80;99.90
15765;DHT22;7983;50.744;7.086;2023-07-31T05:52:55;20.80;99.90
15765;DHT22;7983;50.744;7.086;2023-07-31T05:55:21;20.80;99.90
15765;DHT22;7983;50.744;7.086;2023-07-31T05:57:46;20.80;99.90
15765;DHT22;7983;50.744;7.086;2023-07-31T06:00:14;20.80;99.90
15765;DHT22;7983;50.744;7.086;2023-07-31T06:02:42;20.80;99.90
15765;DHT22;7983;50.744;7.086;2023-07-31T06:05:10;20.80;99.90
15765;DHT22;7983;50.744;7.086;2023-07-31T06:07:36;20.80;99.90
15765;DHT22;7983;50.744;7.086;2023-07-31T06:10:02;20.80;99.90
15765;DHT22;7983;50.744;7.086;2023-07-31T06:12:34;20.80;99.90
15765;DHT22;7983;50.744;7.086;2023-07-31T06:15:01;20.80;99.90
15765;DHT22;7983;50.744;7.086;2023-07-31T06:17:26;20.80;99.90
15765;DHT22;7983;50.744;7.086;2023-07-31T06:19:57;20.80;99.90
15765;DHT22;7983;50.744;7.086;2023-07-31T06:22:23;20.70;99.90
15765;DHT22;7983;50.744;7.086;2023-07-31T06:24:48;20.70;99.90
15765;DHT22;7983;50.744;7.086;2023-07-31T06:27:16;20.60;99.90
15765;DHT22;7983;50.744;7.086;2023-07-31T06:29:42;20.60;99.90
15765;DHT22;7983;50.744;7.086;2023-07-31T06:32:10;20.50;99.90
15765;DHT22;7983;50.744;7.086;2023-07-31T06:34:36;20.40;99.90
15765;DHT22;7983;50.744;7.086;2023-07-31T06:37:01;20.30;99.90
15765;DHT22;7983;50.744;7.086;2023-07-31T06:39:29;20.30;99.90
15765;DHT22;7983;50.744;7.086;2023-07-31T06:41:55;20.20;99.90
15765;DHT22;7983;50.744;7.086;2023-07-31T06:44:20;20.10;99.90
15765;DHT22;7983;50.744;7.086;2023-07-31T06:46:48;20.10;99.90
15765;DHT22;7983;50.744;7.086;2023-07-31T06:49:16;20.10;99.90
15765;DHT22;7983;50.744;7.086;2023-07-31T06:51:42;20.10;99.90
15765;DHT22;7983;50.744;7.086;2023-07-31T06:54:11;20.10;99.90
15765;DHT22;7983;50.744;7.086;2023-07-31T06:56:36;20.10;99.90
15765;DHT22;7983;50.744;7.086;2023-07-31T06:59:04;20.10;99.90
15765;DHT22;7983;50.744;7.086;2023-07-31T07:01:30;20.20;99.90
15765;DHT22;7983;50.744;7.086;2023-07-31T07:03:58;20.20;99.90
15765;DHT22;7983;50.744;7.086;2023-07-31T07:06:26;20.20;99.90
15765;DHT22;7983;50.744;7.086;2023-07-31T07:08:51;20.30;99.90
15765;DHT22;7983;50.744;7.086;2023-07-31T07:11:21;20.30;99.90
15765;DHT22;7983;50.744;7.086;2023-07-31T07:13:49;20.30;99.90
15765;DHT22;7983;50.744;7.086;2023-07-31T07:16:17;20.40;99.90
15765;DHT22;7983;50.744;7.086;2023-07-31T07:18:43;20.50;99.90
15765;DHT22;7983;50.744;7.086;2023-07-31T07:21:09;20.60;99.90
15765;DHT22;7983;50.744;7.086;2023-07-31T07:23:34;20.60;99.90
15765;DHT22;7983;50.744;7.086;2023-07-31T07:26:00;20.70;99.90
15765;DHT22;7983;50.744;7.086;2023-07-31T07:28:25;20.80;99.90
15765;DHT22;7983;50.744;7.086;2023-07-31T07:30:52;20.80;99.90
15765;DHT22;7983;50.744;7.086;2023-07-31T07:33:20;20.90;99.90
15765;DHT22;7983;50.744;7.086;2023-07-31T07:35:46;20.90;99.90
15765;DHT22;7983;50.744;7.086;2023-07-31T07:38:13;20.90;99.90
15765;DHT22;7983;50.744;7.086;2023-07-31T07:40:39;21.00;99.90
15765;DHT22;7983;50.744;7.086;2023-07-31T07:43:10;20.90;99.90
15765;DHT22;7983;50.744;7.086;2023-07-31T07:45:38;21.00;99.90
15765;DHT22;7983;50.744;7.086;2023-07-31T07:48:03;20.90;99.90
15765;DHT22;7983;50.744;7.086;2023-07-31T07:50:34;20.80;99.90
15765;DHT22;7983;50.744;7.086;2023-07-31T07:53:00;20.70;99.90
15765;DHT22;7983;50.744;7.086;2023-07-31T07:55:28;20.60;99.90
15765;DHT22;7983;50.744;7.086;2023-07-31T07:57:53;20.40;99.90
15765;DHT22;7983;50.744;7.086;2023-07-31T08:00:21;20.30;99.90
15765;DHT22;7983;50.744;7.086;2023-07-31T08:02:49;20.10;99.90
15765;DHT22;7983;50.744;7.086;2023-07-31T08:05:15;20.00;99.90
15765;DHT22;7983;50.744;7.086;2023-07-31T08:07:42;19.90;99.90
15765;DHT22;7983;50.744;7.086;2023-07-31T08:10:10;19.80;99.90
15765;DHT22;7983;50.744;7.086;2023-07-31T08:12:40;19.80;99.90
15765;DHT22;7983;50.744;7.086;2023-07-31T08:15:11;19.70;99.90
15765;DHT22;7983;50.744;7.086;2023-07-31T08:17:36;19.70;99.90
15765;DHT22;7983;50.744;7.086;2023-07-31T08:20:05;19.70;99.90
15765;DHT22;7983;50.744;7.086;2023-07-31T08:22:33;19.70;99.90
15765;DHT22;7983;50.744;7.086;2023-07-31T08:25:01;19.70;99.90
15765;DHT22;7983;50.744;7.086;2023-07-31T08:27:27;19.80;99.90
15765;DHT22;7983;50.744;7.086;2023-07-31T08:29:52;19.80;99.90
15765;DHT22;7983;50.744;7.086;2023-07-31T08:32:18;19.80;99.90
15765;DHT22;7983;50.744;7.086;2023-07-31T08:34:44;19.80;99.90
15765;DHT22;7983;50.744;7.086;2023-07-31T08:37:09;19.90;99.90
15765;DHT22;7983;50.744;7.086;2023-07-31T08:39:39;19.90;99.90
15765;DHT22;7983;50.744;7.086;2023-07-31T08:42:08;19.90;99.90
15765;DHT22;7983;50.744;7.086;2023-07-31T08:44:34;19.90;99.90
15765;DHT22;7983;50.744;7.086;2023-07-31T08:47:01;19.90;99.90
15765;DHT22;7983;50.744;7.086;2023-07-31T08:49:27;19.90;99.90
15765;DHT22;7983;50.744;7.086;2023-07-31T08:51:55;20.00;99.90
15765;DHT22;7983;50.744;7.086;2023-07-31T08:54:23;20.00;99.90
15765;DHT22;7983;50.744;7.086;2023-07-31T08:56:50;20.00;99.90
15765;DHT22;7983;50.744;7.086;2023-07-31T08:59:17;20.00;99.90
15765;DHT22;7983;50.744;7.086;2023-07-31T09:01:49;20.00;99.90
15765;DHT22;7983;50.744;7.086;2023-07-31T09:04:16;20.00;99.90
15765;DHT22;7983;50.744;7.086;2023-07-31T09:06:44;20.10;99.90
15765;DHT22;7983;50.744;7.086;2023-07-31T09:09:10;20.00;99.90
15765;DHT22;7983;50.744;7.086;2023-07-31T09:11:38;20.10;99.90
15765;DHT22;7983;50.744;7.086;2023-07-31T09:14:07;20.10;99.90
15765;DHT22;7983;50.744;7.086;2023-07-31T09:16:34;20.10;99.90
15765;DHT22;7983;50.744;7.086;2023-07-31T09:19:07;20.10;99.90
15765;DHT22;7983;50.744;7.086;2023-07-31T09:21:33;20.10;99.90
15765;DHT22;7983;50.744;7.086;2023-07-31T09:23:58;20.20;99.90
15765;DHT22;7983;50.744;7.086;2023-07-31T09:26:36;20.20;99.90
15765;DHT22;7983;50.744;7.086;2023-07-31T09:29:05;20.20;99.90
15765;DHT22;7983;50.744;7.086;2023-07-31T09:34:04;20.20;99.90
15765;DHT22;7983;50.744;7.086;2023-07-31T09:36:32;20.30;99.90
15765;DHT22;7983;50.744;7.086;2023-07-31T09:39:03;20.30;99.90
15765;DHT22;7983;50.744;7.086;2023-07-31T09:41:36;20.30;99.90
15765;DHT22;7983;50.744;7.086;2023-07-31T09:44:03;20.30;99.90
15765;DHT22;7983;50.744;7.086;2023-07-31T09:46:32;20.30;99.90
15765;DHT22;7983;50.744;7.086;2023-07-31T09:49:18;20.40;99.90
15765;DHT22;7983;50.744;7.086;2023-07-31T09:51:43;20.40;99.90
15765;DHT22;7983;50.744;7.086;2023-07-31T09:54:15;20.40;99.90
15765;DHT22;7983;50.744;7.086;2023-07-31T09:56:45;20.50;99.90
15765;DHT22;7983;50.744;7.086;2023-07-31T09:59:16;20.50;99.90
15765;DHT22;7983;50.744;7.086;2023-07-31T10:01:43;20.50;99.90
15765;DHT22;7983;50.744;7.086;2023-07-31T10:04:14;20.60;99.90
15765;DHT22;7983;50.744;7.086;2023-07-31T10:06:44;20.70;99.90
15765;DHT22;7983;50.744;7.086;2023-07-31T10:09:18;20.70;99.90
15765;DHT22;7983;50.744;7.086;2023-07-31T10:11:55;20.80;99.90
15765;DHT22;7983;50.744;7.086;2023-07-31T10:14:21;21.00;99.90
15765;DHT22;7983;50.744;7.086;2023-07-31T10:16:49;21.10;99.90
15765;DHT22;7983;50.744;7.086;2023-07-31T10:19:16;21.30;99.90
15765;DHT22;7983;50.744;7.086;2023-07-31T10:21:43;21.40;99.90
15765;DHT22;7983;50.744;7.086;2023-07-31T10:24:09;21.50;99.90
15765;DHT22;7983;50.744;7.086;2023-07-31T10:26:35;21.60;99.90
15765;DHT22;7983;50.744;7.086;2023-07-31T10:29:03;21.70;99.90
15765;DHT22;7983;50.744;7.086;2023-07-31T10:31:32;21.90;99.90
15765;DHT22;7983;50.744;7.086;2023-07-31T10:33:58;22.00;99.90
15765;DHT22;7983;50.744;7.086;2023-07-31T10:36:25;22.10;99.90
15765;DHT22;7983;50.744;7.086;2023-07-31T10:38:52;22.20;99.90
15765;DHT22;7983;50.744;7.086;2023-07-31T10:41:29;22.30;99.90
15765;DHT22;7983;50.744;7.086;2023-07-31T10:43:58;22.50;99.90
15765;DHT22;7983;50.744;7.086;2023-07-31T10:46:23;22.60;99.90
15765;DHT22;7983;50.744;7.086;2023-07-31T10:48:58;22.70;99.90
15765;DHT22;7983;50.744;7.086;2023-07-31T10:51:32;22.80;99.90
15765;DHT22;7983;50.744;7.086;2023-07-31T10:54:22;22.90;99.90
15765;DHT22;7983;50.744;7.086;2023-07-31T10:56:50;23.00;99.90
15765;DHT22;7983;50.744;7.086;2023-07-31T10:59:17;23.00;99.90
15765;DHT22;7983;50.744;7.086;2023-07-31T11:02:05;23.00;99.90
15765;DHT22;7983;50.744;7.086;2023-07-31T11:04:35;23.10;99.90
15765;DHT22;7983;50.744;7.086;2023-07-31T11:07:02;23.00;99.90
15765;DHT22;7983;50.744;7.086;2023-07-31T11:09:32;23.10;99.90
15765;DHT22;7983;50.744;7.086;2023-07-31T11:12:01;23.00;99.90
15765;DHT22;7983;50.744;7.086;2023-07-31T11:14:27;23.00;99.90
15765;DHT22;7983;50.744;7.086;2023-07-31T11:16:55;23.00;99.90
15765;DHT22;7983;50.744;7.086;2023-07-31T11:19:26;23.10;99.90
15765;DHT22;7983;50.744;7.086;2023-07-31T11:21:52;23.00;99.90
15765;DHT22;7983;50.744;7.086;2023-07-31T11:24:20;23.00;99.90
15765;DHT22;7983;50.744;7.086;2023-07-31T11:26:53;23.00;99.90
15765;DHT22;7983;50.744;7.086;2023-07-31T11:29:19;23.00;99.90
15765;DHT22;7983;50.744;7.086;2023-07-31T11:31:46;22.90;99.90
15765;DHT22;7983;50.744;7.086;2023-07-31T11:34:14;22.90;99.90
15765;DHT22;7983;50.744;7.086;2023-07-31T11:36:58;22.90;99.90
15765;DHT22;7983;50.744;7.086;2023-07-31T11:39:24;22.70;99.90
15765;DHT22;7983;50.744;7.086;2023-07-31T11:41:50;22.50;99.90
15765;DHT22;7983;50.744;7.086;2023-07-31T11:44:17;22.20;99.90
15765;DHT22;7983;50.744;7.086;2023-07-31T11:46:45;22.00;99.90
15765;DHT22;7983;50.744;7.086;2023-07-31T11:49:11;21.80;99.90
15765;DHT22;7983;50.744;7.086;2023-07-31T11:51:39;21.70;99.90
15765;DHT22;7983;50.744;7.086;2023-07-31T11:54:05;21.70;99.90
15765;DHT22;7983;50.744;7.086;2023-07-31T11:56:32;21.70;99.90
15765;DHT22;7983;50.744;7.086;2023-07-31T11:58:59;21.70;99.90
15765;DHT22;7983;50.744;7.086;2023-07-31T12:01:28;21.80;99.90
15765;DHT22;7983;50.744;7.086;2023-07-31T12:03:54;21.90;99.90
15765;DHT22;7983;50.744;7.086;2023-07-31T12:06:20;22.00;99.90
15765;DHT22;7983;50.744;7.086;2023-07-31T12:08:49;22.10;99.90
15765;DHT22;7983;50.744;7.086;2023-07-31T12:11:14;22.30;99.90
15765;DHT22;7983;50.744;7.086;2023-07-31T12:13:40;22.50;99.90
15765;DHT22;7983;50.744;7.086;2023-07-31T12:16:08;22.70;99.90
15765;DHT22;7983;50.744;7.086;2023-07-31T12:18:36;22.80;99.90
15765;DHT22;7983;50.744;7.086;2023-07-31T12:21:05;23.00;99.90
15765;DHT22;7983;50.744;7.086;2023-07-31T12:23:35;23.20;99.90
15765;DHT22;7983;50.744;7.086;2023-07-31T12:26:05;23.40;99.90
15765;DHT22;7983;50.744;7.086;2023-07-31T12:28:41;23.50;99.90
15765;DHT22;7983;50.744;7.086;2023-07-31T12:31:09;23.60;99.90
15765;DHT22;7983;50.744;7.086;2023-07-31T12:33:36;23.60;99.90
15765;DHT22;7983;50.744;7.086;2023-07-31T12:36:08;23.70;99.90
15765;DHT22;7983;50.744;7.086;2023-07-31T12:38:36;23.80;99.90
15765;DHT22;7983;50.744;7.086;2023-07-31T12:41:02;23.80;99.90
15765;DHT22;7983;50.744;7.086;2023-07-31T12:43:30;23.90;99.90
15765;DHT22;7983;50.744;7.086;2023-07-31T12:45:56;23.90;99.90
15765;DHT22;7983;50.744;7.086;2023-07-31T12:48:22;23.90;99.90
15765;DHT22;7983;50.744;7.086;2023-07-31T12:50:47;23.90;99.90
15765;DHT22;7983;50.744;7.086;2023-07-31T12:53:14;23.90;99.90
15765;DHT22;7983;50.744;7.086;2023-07-31T12:55:44;23.80;99.90
15765;DHT22;7983;50.744;7.086;2023-07-31T12:58:12;23.80;99.90
15765;DHT22;7983;50.744;7.086;2023-07-31T13:00:37;23.80;99.90
15765;DHT22;7983;50.744;7.086;2023-07-31T13:03:06;23.80;99.90
15765;DHT22;7983;50.744;7.086;2023-07-31T13:05:31;23.70;99.90
15765;DHT22;7983;50.744;7.086;2023-07-31T13:07:57;23.70;99.90
15765;DHT22;7983;50.744;7.086;2023-07-31T13:10:23;23.70;99.90
15765;DHT22;7983;50.744;7.086;2023-07-31T13:12:54;23.70;99.90
15765;DHT22;7983;50.744;7.086;2023-07-31T13:15:19;23.70;99.90
15765;DHT22;7983;50.744;7.086;2023-07-31T13:17:47;23.70;99.90
15765;DHT22;7983;50.744;7.086;2023-07-31T13:20:15;23.70;99.90
15765;DHT22;7983;50.744;7.086;2023-07-31T13:22:45;23.80;99.90
15765;DHT22;7983;50.744;7.086;2023-07-31T13:25:11;23.80;99.90
15765;DHT22;7983;50.744;7.086;2023-07-31T13:27:36;23.80;99.90
15765;DHT22;7983;50.744;7.086;2023-07-31T13:30:02;23.80;99.90
15765;DHT22;7983;50.744;7.086;2023-07-31T13:32:31;23.80;99.90
15765;DHT22;7983;50.744;7.086;2023-07-31T13:35:01;23.80;99.90
15765;DHT22;7983;50.744;7.086;2023-07-31T13:37:27;23.80;99.90
15765;DHT22;7983;50.744;7.086;2023-07-31T13:39:55;23.70;99.90
15765;DHT22;7983;50.744;7.086;2023-07-31T13:42:21;23.80;99.90
15765;DHT22;7983;50.744;7.086;2023-07-31T13:44:47;23.90;99.90
15765;DHT22;7983;50.744;7.086;2023-07-31T13:47:17;23.90;99.90
15765;DHT22;7983;50.744;7.086;2023-07-31T13:49:48;23.80;99.90
15765;DHT22;7983;50.744;7.086;2023-07-31T13:52:13;23.90;99.90
15765;DHT22;7983;50.744;7.086;2023-07-31T13:54:39;23.80;99.90
15765;DHT22;7983;50.744;7.086;2023-07-31T13:57:05;23.90;99.90
15765;DHT22;7983;50.744;7.086;2023-07-31T13:59:33;23.90;99.90
15765;DHT22;7983;50.744;7.086;2023-07-31T14:02:01;23.90;99.90
15765;DHT22;7983;50.744;7.086;2023-07-31T14:04:29;23.90;99.90
15765;DHT22;7983;50.744;7.086;2023-07-31T14:06:55;24.10;99.90
15765;DHT22;7983;50.744;7.086;2023-07-31T14:09:22;24.10;99.90
15765;DHT22;7983;50.744;7.086;2023-07-31T14:11:50;24.20;99.90
15765;DHT22;7983;50.744;7.086;2023-07-31T14:14:18;24.20;99.90
15765;DHT22;7983;50.744;7.086;2023-07-31T14:16:44;24.30;99.90
15765;DHT22;7983;50.744;7.086;2023-07-31T14:19:10;24.30;99.90
15765;DHT22;7983;50.744;7.086;2023-07-31T14:21:36;24.30;99.90
15765;DHT22;7983;50.744;7.086;2023-07-31T14:24:04;24.30;99.90
15765;DHT22;7983;50.744;7.086;2023-07-31T14:26:29;24.30;99.90
15765;DHT22;7983;50.744;7.086;2023-07-31T14:28:55;24.30;99.90
15765;DHT22;7983;50.744;7.086;2023-07-31T14:31:23;24.20;99.90
15765;DHT22;7983;50.744;7.086;2023-07-31T14:33:49;24.10;99.90
15765;DHT22;7983;50.744;7.086;2023-07-31T14:36:14;24.00;99.90
15765;DHT22;7983;50.744;7.086;2023-07-31T14:38:42;24.00;99.90
15765;DHT22;7983;50.744;7.086;2023-07-31T14:41:08;23.90;99.90
15765;DHT22;7983;50.744;7.086;2023-07-31T14:43:33;23.80;99.90
15765;DHT22;7983;50.744;7.086;2023-07-31T14:45:59;23.70;99.90
15765;DHT22;7983;50.744;7.086;2023-07-31T14:48:26;23.60;99.90
15765;DHT22;7983;50.744;7.086;2023-07-31T14:50:54;23.60;99.90
15765;DHT22;7983;50.744;7.086;2023-07-31T14:53:21;23.50;99.90
15765;DHT22;7983;50.744;7.086;2023-07-31T14:55:49;23.40;99.90
15765;DHT22;7983;50.744;7.086;2023-07-31T14:58:17;23.30;99.90
15765;DHT22;7983;50.744;7.086;2023-07-31T15:00:45;23.30;99.90
15765;DHT22;7983;50.744;7.086;2023-07-31T15:03:11;23.30;99.90
15765;DHT22;7983;50.744;7.086;2023-07-31T15:05:36;23.20;99.90
15765;DHT22;7983;50.744;7.086;2023-07-31T15:08:04;23.10;99.90
15765;DHT22;7983;50.744;7.086;2023-07-31T15:10:30;23.10;99.90
15765;DHT22;7983;50.744;7.086;2023-07-31T15:12:56;23.10;99.90
15765;DHT22;7983;50.744;7.086;2023-07-31T15:15:22;23.00;99.90
15765;DHT22;7983;50.744;7.086;2023-07-31T15:17:49;23.00;99.90
15765;DHT22;7983;50.744;7.086;2023-07-31T15:20:14;22.90;99.90
15765;DHT22;7983;50.744;7.086;2023-07-31T15:22:42;22.90;99.90
15765;DHT22;7983;50.744;7.086;2023-07-31T15:25:11;22.80;99.90
15765;DHT22;7983;50.744;7.086;2023-07-31T15:27:36;22.80;99.90
15765;DHT22;7983;50.744;7.086;2023-07-31T15:30:07;22.80;99.90
15765;DHT22;7983;50.744;7.086;2023-07-31T15:32:33;22.70;99.90
15765;DHT22;7983;50.744;7.086;2023-07-31T15:35:03;22.70;99.90
15765;DHT22;7983;50.744;7.086;2023-07-31T15:37:28;22.70;99.90
15765;DHT22;7983;50.744;7.086;2023-07-31T15:39:54;22.70;99.90
15765;DHT22;7983;50.744;7.086;2023-07-31T15:42:20;22.70;99.90
15765;DHT22;7983;50.744;7.086;2023-07-31T15:44:45;22.70;99.90
15765;DHT22;7983;50.744;7.086;2023-07-31T15:47:11;22.70;99.90
15765;DHT22;7983;50.744;7.086;2023-07-31T15:49:43;22.70;99.90
15765;DHT22;7983;50.744;7.086;2023-07-31T15:52:09;22.70;99.90
15765;DHT22;7983;50.744;7.086;2023-07-31T15:54:35;22.70;99.90
15765;DHT22;7983;50.744;7.086;2023-07-31T15:57:03;22.70;99.90